sensor_id;sensor_type;location;lat;lon;timestamp;temperature;humidity
19622;DHT22;9958;33.196;-97.114;2023-05-21T00:00:32;25.20;78.90
19622;DHT22;9958;33.196;-97.114;2023-05-21T00:03:01;25.20;79.00
19622;DHT22;9958;33.196;-97.114;2023-05-21T00:05:31;25.10;78.90
19622;DHT22;9958;33.196;-97.114;2023-05-21T00:07:59;25.10;78.90
19622;DHT22;9958;33.196;-97.114;2023-05-21T00:10:27;25.10;80.30
19622;DHT22;9958;33.196;-97.114;2023-05-21T00:12:55;25.10;80.40
19622;DHT22;9958;33.196;-97.114;2023-05-21T00:15:24;25.00;79.40
19622;DHT22;9958;33.196;-97.114;2023-05-21T00:17:52;25.00;80.00
19622;DHT22;9958;33.196;-97.114;2023-05-21T00:20:20;24.90;80.10
19622;DHT22;9958;33.196;-97.114;2023-05-21T00:22:50;24.90;80.10
19622;DHT22;9958;33.196;-97.114;2023-05-21T00:25:19;24.80;79.80
19622;DHT22;9958;33.196;-97.114;2023-05-21T00:27:47;24.70;78.70
19622;DHT22;9958;33.196;-97.114;2023-05-21T00:30:16;24.70;79.50
19622;DHT22;9958;33.196;-97.114;2023-05-21T00:32:44;24.60;80.00
19622;DHT22;9958;33.196;-97.114;2023-05-21T00:35:12;24.50;80.80
19622;DHT22;9958;33.196;-97.114;2023-05-21T00:37:41;24.40;81.40
19622;DHT22;9958;33.196;-97.114;2023-05-21T00:40:11;24.40;81.10
19622;DHT22;9958;33.196;-97.114;2023-05-21T00:42:39;24.30;81.70
19622;DHT22;9958;33.196;-97.114;2023-05-21T00:45:08;24.20;82.60
19622;DHT22;9958;33.196;-97.114;2023-05-21T00:47:36;24.10;82.50
19622;DHT22;9958;33.196;-97.114;2023-05-21T00:50:07;24.10;83.00
19622;DHT22;9958;33.196;-97.114;2023-05-21T00:52:36;24.00;83.60
19622;DHT22;9958;33.196;-97.114;2023-05-21T00:55:08;23.90;83.60
19622;DHT22;9958;33.196;-97.114;2023-05-21T00:57:39;23.90;84.40
19622;DHT22;9958;33.196;-97.114;2023-05-21T01:00:08;23.80;84.80
19622;DHT22;9958;33.196;-97.114;2023-05-21T01:02:37;23.70;85.30
19622;DHT22;9958;33.196;-97.114;2023-05-21T01:05:06;23.60;85.40
19622;DHT22;9958;33.196;-97.114;2023-05-21T01:07:37;23.50;86.10
19622;DHT22;9958;33.196;-97.114;2023-05-21T01:10:08;23.40;86.50
19622;DHT22;9958;33.196;-97.114;2023-05-21T01:12:39;23.30;86.60
19622;DHT22;9958;33.196;-97.114;2023-05-21T01:15:09;23.30;87.30
19622;DHT22;9958;33.196;-97.114;2023-05-21T01:17:38;23.20;87.60
19622;DHT22;9958;33.196;-97.114;2023-05-21T01:20:07;23.10;88.40
19622;DHT22;9958;33.196;-97.114;2023-05-21T01:25:16;23.00;90.00
19622;DHT22;9958;33.196;-97.114;2023-05-21T01:27:44;22.90;90.10
19622;DHT22;9958;33.196;-97.114;2023-05-21T01:30:13;22.70;90.20
19622;DHT22;9958;33.196;-97.114;2023-05-21T01:32:55;22.70;90.60
19622;DHT22;9958;33.196;-97.114;2023-05-21T01:35:26;22.60;90.90
19622;DHT22;9958;33.196;-97.114;2023-05-21T01:38:02;22.50;91.10
19622;DHT22;9958;33.196;-97.114;2023-05-21T01:40:37;22.50;91.50
19622;DHT22;9958;33.196;-97.114;2023-05-21T01:43:06;22.40;91.60
19622;DHT22;9958;33.196;-97.114;2023-05-21T01:45:39;22.30;91.90
19622;DHT22;9958;33.196;-97.114;2023-05-21T01:48:09;22.20;92.20
19622;DHT22;9958;33.196;-97.114;2023-05-21T01:50:38;22.10;92.60
19622;DHT22;9958;33.196;-97.114;2023-05-21T01:53:07;22.00;92.50
19622;DHT22;9958;33.196;-97.114;2023-05-21T01:55:37;22.00;92.70
19622;DHT22;9958;33.196;-97.114;2023-05-21T01:58:07;21.90;92.70
19622;DHT22;9958;33.196;-97.114;2023-05-21T02:00:35;21.80;92.80
19622;DHT22;9958;33.196;-97.114;2023-05-21T02:03:05;21.80;93.00
19622;DHT22;9958;33.196;-97.114;2023-05-21T02:05:33;21.80;93.40
19622;DHT22;9958;33.196;-97.114;2023-05-21T02:08:02;21.70;93.60
19622;DHT22;9958;33.196;-97.114;2023-05-21T02:10:30;21.60;93.70
19622;DHT22;9958;33.196;-97.114;2023-05-21T02:13:00;21.60;94.60
19622;DHT22;9958;33.196;-97.114;2023-05-21T02:15:29;21.50;94.20
19622;DHT22;9958;33.196;-97.114;2023-05-21T02:17:59;21.50;94.40
19622;DHT22;9958;33.196;-97.114;2023-05-21T02:20:28;21.40;94.60
19622;DHT22;9958;33.196;-97.114;2023-05-21T02:22:57;21.40;94.70
19622;DHT22;9958;33.196;-97.114;2023-05-21T02:25:25;21.30;94.80
19622;DHT22;9958;33.196;-97.114;2023-05-21T02:27:53;21.20;95.00
19622;DHT22;9958;33.196;-97.114;2023-05-21T02:30:23;21.20;95.30
19622;DHT22;9958;33.196;-97.114;2023-05-21T02:32:52;21.10;95.40
19622;DHT22;9958;33.196;-97.114;2023-05-21T02:35:20;21.10;95.70
19622;DHT22;9958;33.196;-97.114;2023-05-21T02:37:49;20.90;95.80
19622;DHT22;9958;33.196;-97.114;2023-05-21T02:40:17;20.90;95.90
19622;DHT22;9958;33.196;-97.114;2023-05-21T02:42:46;20.80;96.20
19622;DHT22;9958;33.196;-97.114;2023-05-21T02:45:14;20.70;96.30
19622;DHT22;9958;33.196;-97.114;2023-05-21T02:47:44;20.60;96.60
19622;DHT22;9958;33.196;-97.114;2023-05-21T02:50:13;20.60;96.80
19622;DHT22;9958;33.196;-97.114;2023-05-21T02:52:41;20.50;97.00
19622;DHT22;9958;33.196;-97.114;2023-05-21T02:55:10;20.50;97.10
19622;DHT22;9958;33.196;-97.114;2023-05-21T02:57:38;20.40;97.30
19622;DHT22;9958;33.196;-97.114;2023-05-21T03:00:07;20.30;97.50
19622;DHT22;9958;33.196;-97.114;2023-05-21T03:02:36;20.30;97.60
19622;DHT22;9958;33.196;-97.114;2023-05-21T03:05:07;20.20;97.80
19622;DHT22;9958;33.196;-97.114;2023-05-21T03:07:35;20.10;97.90
19622;DHT22;9958;33.196;-97.114;2023-05-21T03:10:04;20.10;98.10
19622;DHT22;9958;33.196;-97.114;2023-05-21T03:12:33;20.00;98.50
19622;DHT22;9958;33.196;-97.114;2023-05-21T03:15:01;20.00;98.80
19622;DHT22;9958;33.196;-97.114;2023-05-21T03:17:30;19.90;99.20
19622;DHT22;9958;33.196;-97.114;2023-05-21T03:19:58;19.80;99.20
19622;DHT22;9958;33.196;-97.114;2023-05-21T03:22:28;19.80;99.40
19622;DHT22;9958;33.196;-97.114;2023-05-21T03:24:57;19.70;99.50
19622;DHT22;9958;33.196;-97.114;2023-05-21T03:27:25;19.70;99.90
19622;DHT22;9958;33.196;-97.114;2023-05-21T03:29:53;19.60;99.90
19622;DHT22;9958;33.196;-97.114;2023-05-21T03:32:22;19.50;99.90
19622;DHT22;9958;33.196;-97.114;2023-05-21T03:34:50;19.50;99.90
19622;DHT22;9958;33.196;-97.114;2023-05-21T03:37:19;19.40;99.90
19622;DHT22;9958;33.196;-97.114;2023-05-21T03:39:48;19.40;99.90
19622;DHT22;9958;33.196;-97.114;2023-05-21T03:42:17;19.30;99.90
19622;DHT22;9958;33.196;-97.114;2023-05-21T03:44:45;19.30;99.90
19622;DHT22;9958;33.196;-97.114;2023-05-21T03:47:13;19.20;99.90
19622;DHT22;9958;33.196;-97.114;2023-05-21T03:49:42;19.20;99.90
19622;DHT22;9958;33.196;-97.114;2023-05-21T03:52:10;19.10;99.90
19622;DHT22;9958;33.196;-97.114;2023-05-21T03:54:38;19.10;99.90
19622;DHT22;9958;33.196;-97.114;2023-05-21T03:57:08;19.00;99.90
19622;DHT22;9958;33.196;-97.114;2023-05-21T03:59:36;19.00;99.90
19622;DHT22;9958;33.196;-97.114;2023-05-21T04:02:05;19.00;99.90
19622;DHT22;9958;33.196;-97.114;2023-05-21T04:04:33;18.90;99.90
19622;DHT22;9958;33.196;-97.114;2023-05-21T04:07:02;18.90;99.90
19622;DHT22;9958;33.196;-97.114;2023-05-21T04:09:31;18.90;99.90
19622;DHT22;9958;33.196;-97.114;2023-05-21T04:11:59;18.90;99.90
19622;DHT22;9958;33.196;-97.114;2023-05-21T04:14:30;18.80;99.90
19622;DHT22;9958;33.196;-97.114;2023-05-21T04:16:58;18.80;99.90
19622;DHT22;9958;33.196;-97.114;2023-05-21T04:19:30;18.80;99.90
19622;DHT22;9958;33.196;-97.114;2023-05-21T04:21:58;18.70;99.90
19622;DHT22;9958;33.196;-97.114;2023-05-21T04:24:27;18.70;99.90
19622;DHT22;9958;33.196;-97.114;2023-05-21T04:26:55;18.60;99.90
19622;DHT22;9958;33.196;-97.114;2023-05-21T04:29:26;18.60;99.90
19622;DHT22;9958;33.196;-97.114;2023-05-21T04:31:56;18.60;99.90
19622;DHT22;9958;33.196;-97.114;2023-05-21T04:34:25;18.50;99.90
19622;DHT22;9958;33.196;-97.114;2023-05-21T04:36:53;18.40;99.90
19622;DHT22;9958;33.196;-97.114;2023-05-21T04:39:22;18.40;99.90
19622;DHT22;9958;33.196;-97.114;2023-05-21T04:41:50;18.30;99.90
19622;DHT22;9958;33.196;-97.114;2023-05-21T04:44:20;18.30;99.90
19622;DHT22;9958;33.196;-97.114;2023-05-21T04:46:48;18.20;99.90
19622;DHT22;9958;33.196;-97.114;2023-05-21T04:49:19;18.20;99.90
19622;DHT22;9958;33.196;-97.114;2023-05-21T04:51:48;18.10;99.90
19622;DHT22;9958;33.196;-97.114;2023-05-21T04:54:16;18.10;99.90
19622;DHT22;9958;33.196;-97.114;2023-05-21T04:56:44;18.10;99.90
19622;DHT22;9958;33.196;-97.114;2023-05-21T04:59:12;18.00;99.90
19622;DHT22;9958;33.196;-97.114;2023-05-21T05:01:41;18.00;99.90
19622;DHT22;9958;33.196;-97.114;2023-05-21T05:04:09;18.00;99.90
19622;DHT22;9958;33.196;-97.114;2023-05-21T05:06:39;17.90;99.90
19622;DHT22;9958;33.196;-97.114;2023-05-21T05:09:07;17.90;99.90
19622;DHT22;9958;33.196;-97.114;2023-05-21T05:11:36;17.80;99.90
19622;DHT22;9958;33.196;-97.114;2023-05-21T05:14:04;17.80;99.90
19622;DHT22;9958;33.196;-97.114;2023-05-21T05:16:32;17.70;99.90
19622;DHT22;9958;33.196;-97.114;2023-05-21T05:19:01;17.70;99.90
19622;DHT22;9958;33.196;-97.114;2023-05-21T05:21:30;17.70;99.90
19622;DHT22;9958;33.196;-97.114;2023-05-21T05:24:00;17.60;99.90
19622;DHT22;9958;33.196;-97.114;2023-05-21T05:26:28;17.60;99.90
19622;DHT22;9958;33.196;-97.114;2023-05-21T05:28:56;17.50;99.90
19622;DHT22;9958;33.196;-97.114;2023-05-21T05:31:25;17.50;99.90
19622;DHT22;9958;33.196;-97.114;2023-05-21T05:33:53;17.50;99.90
19622;DHT22;9958;33.196;-97.114;2023-05-21T05:36:22;17.50;99.90
19622;DHT22;9958;33.196;-97.114;2023-05-21T05:38:50;17.40;99.90
19622;DHT22;9958;33.196;-97.114;2023-05-21T05:41:20;17.40;99.90
19622;DHT22;9958;33.196;-97.114;2023-05-21T05:43:48;17.40;99.90
19622;DHT22;9958;33.196;-97.114;2023-05-21T05:46:16;17.40;99.90
19622;DHT22;9958;33.196;-97.114;2023-05-21T05:48:45;17.40;99.90
19622;DHT22;9958;33.196;-97.114;2023-05-21T05:51:13;17.40;99.90
19622;DHT22;9958;33.196;-97.114;2023-05-21T05:53:42;17.40;99.90
19622;DHT22;9958;33.196;-97.114;2023-05-21T05:56:10;17.40;99.90
19622;DHT22;9958;33.196;-97.114;2023-05-21T05:58:40;17.40;99.90
19622;DHT22;9958;33.196;-97.114;2023-05-21T06:01:08;17.40;99.90
19622;DHT22;9958;33.196;-97.114;2023-05-21T06:03:37;17.40;99.90
19622;DHT22;9958;33.196;-97.114;2023-05-21T06:06:05;17.40;99.90
19622;DHT22;9958;33.196;-97.114;2023-05-21T06:08:33;17.40;99.90
19622;DHT22;9958;33.196;-97.114;2023-05-21T06:11:02;17.40;99.90
19622;DHT22;9958;33.196;-97.114;2023-05-21T06:13:30;17.40;99.90
19622;DHT22;9958;33.196;-97.114;2023-05-21T06:16:00;17.40;99.90
19622;DHT22;9958;33.196;-97.114;2023-05-21T06:18:29;17.40;99.90
19622;DHT22;9958;33.196;-97.114;2023-05-21T06:20:57;17.40;99.90
19622;DHT22;9958;33.196;-97.114;2023-05-21T06:23:25;17.40;99.90
19622;DHT22;9958;33.196;-97.114;2023-05-21T06:25:54;17.40;99.90
19622;DHT22;9958;33.196;-97.114;2023-05-21T06:28:22;17.40;99.90
19622;DHT22;9958;33.196;-97.114;2023-05-21T06:30:50;17.40;99.90
19622;DHT22;9958;33.196;-97.114;2023-05-21T06:33:20;17.40;99.90
19622;DHT22;9958;33.196;-97.114;2023-05-21T06:35:48;17.40;99.90
19622;DHT22;9958;33.196;-97.114;2023-05-21T06:38:17;17.40;99.90
19622;DHT22;9958;33.196;-97.114;2023-05-21T06:40:45;17.40;99.90
19622;DHT22;9958;33.196;-97.114;2023-05-21T06:43:14;17.40;99.90
19622;DHT22;9958;33.196;-97.114;2023-05-21T06:45:43;17.40;99.90
19622;DHT22;9958;33.196;-97.114;2023-05-21T06:48:11;17.40;99.90
19622;DHT22;9958;33.196;-97.114;2023-05-21T06:50:43;17.40;99.90
19622;DHT22;9958;33.196;-97.114;2023-05-21T06:53:11;17.40;99.90
19622;DHT22;9958;33.196;-97.114;2023-05-21T06:55:41;17.40;99.90
19622;DHT22;9958;33.196;-97.114;2023-05-21T06:58:11;17.40;99.90
19622;DHT22;9958;33.196;-97.114;2023-05-21T07:00:39;17.40;99.90
19622;DHT22;9958;33.196;-97.114;2023-05-21T07:03:07;17.40;99.90
19622;DHT22;9958;33.196;-97.114;2023-05-21T07:05:36;17.30;99.90
19622;DHT22;9958;33.196;-97.114;2023-05-21T07:08:06;17.30;99.90
19622;DHT22;9958;33.196;-97.114;2023-05-21T07:10:34;17.30;99.90
19622;DHT22;9958;33.196;-97.114;2023-05-21T07:13:05;17.30;99.90
19622;DHT22;9958;33.196;-97.114;2023-05-21T07:15:33;17.20;99.90
19622;DHT22;9958;33.196;-97.114;2023-05-21T07:18:02;17.20;99.90
19622;DHT22;9958;33.196;-97.114;2023-05-21T07:20:30;17.20;99.90
19622;DHT22;9958;33.196;-97.114;2023-05-21T07:22:58;17.20;99.90
19622;DHT22;9958;33.196;-97.114;2023-05-21T07:25:28;17.20;99.90
19622;DHT22;9958;33.196;-97.114;2023-05-21T07:27:57;17.20;99.90
19622;DHT22;9958;33.196;-97.114;2023-05-21T07:30:25;17.10;99.90
19622;DHT22;9958;33.196;-97.114;2023-05-21T07:32:53;17.10;99.90
19622;DHT22;9958;33.196;-97.114;2023-05-21T07:35:22;17.10;99.90
19622;DHT22;9958;33.196;-97.114;2023-05-21T07:37:50;17.10;99.90
19622;DHT22;9958;33.196;-97.114;2023-05-21T07:40:18;17.10;99.90
19622;DHT22;9958;33.196;-97.114;2023-05-21T07:42:48;17.10;99.90
19622;DHT22;9958;33.196;-97.114;2023-05-21T07:45:17;17.10;99.90
19622;DHT22;9958;33.196;-97.114;2023-05-21T07:47:45;17.00;99.90
19622;DHT22;9958;33.196;-97.114;2023-05-21T07:50:14;17.00;99.90
19622;DHT22;9958;33.196;-97.114;2023-05-21T07:52:42;17.00;99.90
19622;DHT22;9958;33.196;-97.114;2023-05-21T07:55:10;17.00;99.90
19622;DHT22;9958;33.196;-97.114;2023-05-21T07:57:39;17.00;99.90
19622;DHT22;9958;33.196;-97.114;2023-05-21T08:00:10;17.00;99.90
19622;DHT22;9958;33.196;-97.114;2023-05-21T08:02:39;17.00;99.90
19622;DHT22;9958;33.196;-97.114;2023-05-21T08:05:08;16.90;99.90
19622;DHT22;9958;33.196;-97.114;2023-05-21T08:07:37;16.90;99.90
19622;DHT22;9958;33.196;-97.114;2023-05-21T08:10:07;16.90;99.90
19622;DHT22;9958;33.196;-97.114;2023-05-21T08:12:35;16.80;99.90
19622;DHT22;9958;33.196;-97.114;2023-05-21T08:15:04;16.80;99.90
19622;DHT22;9958;33.196;-97.114;2023-05-21T08:17:34;16.80;99.90
19622;DHT22;9958;33.196;-97.114;2023-05-21T08:20:03;16.80;99.90
19622;DHT22;9958;33.196;-97.114;2023-05-21T08:22:32;16.70;99.90
19622;DHT22;9958;33.196;-97.114;2023-05-21T08:25:01;16.70;99.90
19622;DHT22;9958;33.196;-97.114;2023-05-21T08:27:29;16.70;99.90
19622;DHT22;9958;33.196;-97.114;2023-05-21T08:29:57;16.60;99.90
19622;DHT22;9958;33.196;-97.114;2023-05-21T08:32:26;16.60;99.90
19622;DHT22;9958;33.196;-97.114;2023-05-21T08:34:56;16.60;99.90
19622;DHT22;9958;33.196;-97.114;2023-05-21T08:37:26;16.60;99.90
19622;DHT22;9958;33.196;-97.114;2023-05-21T08:39:54;16.50;99.90
19622;DHT22;9958;33.196;-97.114;2023-05-21T08:42:29;16.50;99.90
19622;DHT22;9958;33.196;-97.114;2023-05-21T08:44:59;16.50;99.90
19622;DHT22;9958;33.196;-97.114;2023-05-21T08:47:33;16.50;99.90
19622;DHT22;9958;33.196;-97.114;2023-05-21T08:50:04;16.40;99.90
19622;DHT22;9958;33.196;-97.114;2023-05-21T08:52:32;16.40;99.90
19622;DHT22;9958;33.196;-97.114;2023-05-21T08:55:01;16.40;99.90
19622;DHT22;9958;33.196;-97.114;2023-05-21T08:57:30;16.40;99.90
19622;DHT22;9958;33.196;-97.114;2023-05-21T08:59:59;16.40;99.90
19622;DHT22;9958;33.196;-97.114;2023-05-21T09:02:33;16.40;99.90
19622;DHT22;9958;33.196;-97.114;2023-05-21T09:05:06;16.30;99.90
19622;DHT22;9958;33.196;-97.114;2023-05-21T09:07:41;16.30;99.90
19622;DHT22;9958;33.196;-97.114;2023-05-21T09:10:13;16.30;99.90
19622;DHT22;9958;33.196;-97.114;2023-05-21T09:12:45;16.30;99.90
19622;DHT22;9958;33.196;-97.114;2023-05-21T09:15:14;16.30;99.90
19622;DHT22;9958;33.196;-97.114;2023-05-21T09:17:46;16.30;99.90
19622;DHT22;9958;33.196;-97.114;2023-05-21T09:20:16;16.30;99.90
19622;DHT22;9958;33.196;-97.114;2023-05-21T09:22:45;16.30;99.90
19622;DHT22;9958;33.196;-97.114;2023-05-21T09:25:15;16.30;99.90
19622;DHT22;9958;33.196;-97.114;2023-05-21T09:27:44;16.30;99.90
19622;DHT22;9958;33.196;-97.114;2023-05-21T09:30:13;16.30;99.90
19622;DHT22;9958;33.196;-97.114;2023-05-21T09:32:43;16.40;99.90
19622;DHT22;9958;33.196;-97.114;2023-05-21T09:35:13;16.40;99.90
19622;DHT22;9958;33.196;-97.114;2023-05-21T09:37:47;16.40;99.90
19622;DHT22;9958;33.196;-97.114;2023-05-21T09:40:17;16.40;99.90
19622;DHT22;9958;33.196;-97.114;2023-05-21T09:42:46;16.40;99.90
19622;DHT22;9958;33.196;-97.114;2023-05-21T09:45:18;16.40;99.90
19622;DHT22;9958;33.196;-97.114;2023-05-21T09:47:47;16.40;99.90
19622;DHT22;9958;33.196;-97.114;2023-05-21T09:50:18;16.40;99.90
19622;DHT22;9958;33.196;-97.114;2023-05-21T09:52:48;16.40;99.90
19622;DHT22;9958;33.196;-97.114;2023-05-21T09:55:21;16.40;99.90
19622;DHT22;9958;33.196;-97.114;2023-05-21T09:57:51;16.40;99.90
19622;DHT22;9958;33.196;-97.114;2023-05-21T10:00:20;16.40;99.90
19622;DHT22;9958;33.196;-97.114;2023-05-21T10:02:52;16.40;99.90
19622;DHT22;9958;33.196;-97.114;2023-05-21T10:05:24;16.40;99.90
19622;DHT22;9958;33.196;-97.114;2023-05-21T10:07:59;16.40;99.90
19622;DHT22;9958;33.196;-97.114;2023-05-21T10:10:28;16.40;99.90
19622;DHT22;9958;33.196;-97.114;2023-05-21T10:13:00;16.30;99.90
19622;DHT22;9958;33.196;-97.114;2023-05-21T10:15:38;16.30;99.90
19622;DHT22;9958;33.196;-97.114;2023-05-21T10:18:09;16.40;99.90
19622;DHT22;9958;33.196;-97.114;2023-05-21T10:20:38;16.40;99.90
19622;DHT22;9958;33.196;-97.114;2023-05-21T10:23:08;16.30;99.90
19622;DHT22;9958;33.196;-97.114;2023-05-21T10:25:38;16.30;99.90
19622;DHT22;9958;33.196;-97.114;2023-05-21T10:28:07;16.40;99.90
19622;DHT22;9958;33.196;-97.114;2023-05-21T10:30:35;16.30;99.90
19622;DHT22;9958;33.196;-97.114;2023-05-21T10:33:05;16.30;99.90
19622;DHT22;9958;33.196;-97.114;2023-05-21T10:35:33;16.30;99.90
19622;DHT22;9958;33.196;-97.114;2023-05-21T10:38:04;16.30;99.90
19622;DHT22;9958;33.196;-97.114;2023-05-21T10:40:35;16.30;99.90
19622;DHT22;9958;33.196;-97.114;2023-05-21T10:43:39;16.30;99.90
19622;DHT22;9958;33.196;-97.114;2023-05-21T10:46:42;16.20;99.90
19622;DHT22;9958;33.196;-97.114;2023-05-21T10:49:33;16.20;99.90
19622;DHT22;9958;33.196;-97.114;2023-05-21T10:52:10;16.20;99.90
19622;DHT22;9958;33.196;-97.114;2023-05-21T10:54:56;16.20;99.90
19622;DHT22;9958;33.196;-97.114;2023-05-21T10:57:52;16.10;99.90
19622;DHT22;9958;33.196;-97.114;2023-05-21T11:00:25;16.10;99.90
19622;DHT22;9958;33.196;-97.114;2023-05-21T11:02:54;16.10;99.90
19622;DHT22;9958;33.196;-97.114;2023-05-21T11:05:38;16.10;99.90
19622;DHT22;9958;33.196;-97.114;2023-05-21T11:08:21;16.10;99.90
19622;DHT22;9958;33.196;-97.114;2023-05-21T11:10:53;16.00;99.90
19622;DHT22;9958;33.196;-97.114;2023-05-21T11:13:25;16.10;99.90
19622;DHT22;9958;33.196;-97.114;2023-05-21T11:16:13;16.10;99.90
19622;DHT22;9958;33.196;-97.114;2023-05-21T11:18:58;16.00;99.90
19622;DHT22;9958;33.196;-97.114;2023-05-21T11:21:32;16.10;99.90
19622;DHT22;9958;33.196;-97.114;2023-05-21T11:24:07;16.00;99.90
19622;DHT22;9958;33.196;-97.114;2023-05-21T11:27:03;16.00;99.90
19622;DHT22;9958;33.196;-97.114;2023-05-21T11:29:39;16.00;99.90
19622;DHT22;9958;33.196;-97.114;2023-05-21T11:32:08;16.00;99.90
19622;DHT22;9958;33.196;-97.114;2023-05-21T11:34:40;16.00;99.90
19622;DHT22;9958;33.196;-97.114;2023-05-21T11:37:27;16.00;99.90
19622;DHT22;9958;33.196;-97.114;2023-05-21T11:40:15;16.00;99.90
19622;DHT22;9958;33.196;-97.114;2023-05-21T11:42:49;16.00;99.90
19622;DHT22;9958;33.196;-97.114;2023-05-21T11:45:20;16.00;99.90
19622;DHT22;9958;33.196;-97.114;2023-05-21T11:47:49;16.00;99.90
19622;DHT22;9958;33.196;-97.114;2023-05-21T11:50:18;16.00;99.90
19622;DHT22;9958;33.196;-97.114;2023-05-21T11:52:48;16.00;99.90
19622;DHT22;9958;33.196;-97.114;2023-05-21T11:55:21;16.10;99.90
19622;DHT22;9958;33.196;-97.114;2023-05-21T11:57:52;16.10;99.90
19622;DHT22;9958;33.196;-97.114;2023-05-21T12:00:23;16.20;99.90
19622;DHT22;9958;33.196;-97.114;2023-05-21T12:02:52;16.20;99.90
19622;DHT22;9958;33.196;-97.114;2023-05-21T12:05:21;16.20;99.90
19622;DHT22;9958;33.196;-97.114;2023-05-21T12:07:49;16.30;99.90
19622;DHT22;9958;33.196;-97.114;2023-05-21T12:10:20;16.30;99.90
19622;DHT22;9958;33.196;-97.114;2023-05-21T12:12:49;16.40;99.90
19622;DHT22;9958;33.196;-97.114;2023-05-21T12:15:18;16.50;99.90
19622;DHT22;9958;33.196;-97.114;2023-05-21T12:17:50;16.50;99.90
19622;DHT22;9958;33.196;-97.114;2023-05-21T12:20:19;16.60;99.90
19622;DHT22;9958;33.196;-97.114;2023-05-21T12:22:48;16.60;99.90
19622;DHT22;9958;33.196;-97.114;2023-05-21T12:25:18;16.70;99.90
19622;DHT22;9958;33.196;-97.114;2023-05-21T12:27:47;16.70;99.90
19622;DHT22;9958;33.196;-97.114;2023-05-21T12:30:15;16.80;99.90
19622;DHT22;9958;33.196;-97.114;2023-05-21T12:32:44;16.80;99.90
19622;DHT22;9958;33.196;-97.114;2023-05-21T12:35:21;16.90;99.90
19622;DHT22;9958;33.196;-97.114;2023-05-21T12:37:50;17.00;99.90
19622;DHT22;9958;33.196;-97.114;2023-05-21T12:40:19;17.00;99.90
19622;DHT22;9958;33.196;-97.114;2023-05-21T12:42:48;17.10;99.90
19622;DHT22;9958;33.196;-97.114;2023-05-21T12:45:16;17.20;99.90
19622;DHT22;9958;33.196;-97.114;2023-05-21T12:47:47;17.20;99.90
19622;DHT22;9958;33.196;-97.114;2023-05-21T12:50:22;17.30;99.90
19622;DHT22;9958;33.196;-97.114;2023-05-21T12:52:53;17.40;99.90
19622;DHT22;9958;33.196;-97.114;2023-05-21T12:55:23;17.50;99.90
19622;DHT22;9958;33.196;-97.114;2023-05-21T12:58:01;17.50;99.90
19622;DHT22;9958;33.196;-97.114;2023-05-21T13:00:31;17.60;99.90
19622;DHT22;9958;33.196;-97.114;2023-05-21T13:03:01;17.70;99.90
19622;DHT22;9958;33.196;-97.114;2023-05-21T13:05:31;17.80;99.90
19622;DHT22;9958;33.196;-97.114;2023-05-21T13:07:59;17.90;99.90
19622;DHT22;9958;33.196;-97.114;2023-05-21T13:10:28;18.00;99.90
19622;DHT22;9958;33.196;-97.114;2023-05-21T13:12:56;18.00;99.90
19622;DHT22;9958;33.196;-97.114;2023-05-21T13:15:24;18.10;99.90
19622;DHT22;9958;33.196;-97.114;2023-05-21T13:17:52;18.20;99.90
19622;DHT22;9958;33.196;-97.114;2023-05-21T13:20:22;18.30;99.90
19622;DHT22;9958;33.196;-97.114;2023-05-21T13:22:54;18.30;99.90
19622;DHT22;9958;33.196;-97.114;2023-05-21T13:25:23;18.50;99.90
19622;DHT22;9958;33.196;-97.114;2023-05-21T13:27:54;18.60;99.90
19622;DHT22;9958;33.196;-97.114;2023-05-21T13:30:22;18.70;99.90
19622;DHT22;9958;33.196;-97.114;2023-05-21T13:32:50;18.80;99.90
19622;DHT22;9958;33.196;-97.114;2023-05-21T13:35:19;18.90;99.90
19622;DHT22;9958;33.196;-97.114;2023-05-21T13:37:47;19.10;99.90
19622;DHT22;9958;33.196;-97.114;2023-05-21T13:40:17;19.20;99.90
19622;DHT22;9958;33.196;-97.114;2023-05-21T13:42:46;19.30;99.90
19622;DHT22;9958;33.196;-97.114;2023-05-21T13:45:17;19.50;99.90
19622;DHT22;9958;33.196;-97.114;2023-05-21T13:47:46;19.60;99.90
19622;DHT22;9958;33.196;-97.114;2023-05-21T13:50:15;19.70;99.90
19622;DHT22;9958;33.196;-97.114;2023-05-21T13:52:43;19.80;99.90
19622;DHT22;9958;33.196;-97.114;2023-05-21T13:55:12;19.90;99.90
19622;DHT22;9958;33.196;-97.114;2023-05-21T13:57:42;20.00;99.90
19622;DHT22;9958;33.196;-97.114;2023-05-21T14:00:12;20.10;99.90
19622;DHT22;9958;33.196;-97.114;2023-05-21T14:02:41;20.30;99.90
19622;DHT22;9958;33.196;-97.114;2023-05-21T14:05:10;20.40;99.90
19622;DHT22;9958;33.196;-97.114;2023-05-21T14:07:39;20.60;99.90
19622;DHT22;9958;33.196;-97.114;2023-05-21T14:10:08;20.80;99.90
19622;DHT22;9958;33.196;-97.114;2023-05-21T14:12:36;20.90;99.90
19622;DHT22;9958;33.196;-97.114;2023-05-21T14:15:08;21.00;99.90
19622;DHT22;9958;33.196;-97.114;2023-05-21T14:17:37;21.10;99.90
19622;DHT22;9958;33.196;-97.114;2023-05-21T14:20:08;21.20;99.90
19622;DHT22;9958;33.196;-97.114;2023-05-21T14:22:37;21.30;99.90
19622;DHT22;9958;33.196;-97.114;2023-05-21T14:25:06;21.40;99.90
19622;DHT22;9958;33.196;-97.114;2023-05-21T14:27:34;21.50;99.90
19622;DHT22;9958;33.196;-97.114;2023-05-21T14:30:06;21.70;99.90
19622;DHT22;9958;33.196;-97.114;2023-05-21T14:32:35;21.80;99.90
19622;DHT22;9958;33.196;-97.114;2023-05-21T14:35:04;21.90;99.90
19622;DHT22;9958;33.196;-97.114;2023-05-21T14:37:32;22.00;99.90
19622;DHT22;9958;33.196;-97.114;2023-05-21T14:40:01;22.20;99.90
19622;DHT22;9958;33.196;-97.114;2023-05-21T14:42:30;22.30;99.90
19622;DHT22;9958;33.196;-97.114;2023-05-21T14:44:59;22.40;99.90
19622;DHT22;9958;33.196;-97.114;2023-05-21T14:47:28;22.50;99.90
19622;DHT22;9958;33.196;-97.114;2023-05-21T14:49:57;22.70;99.90
19622;DHT22;9958;33.196;-97.114;2023-05-21T14:52:25;22.90;99.90
19622;DHT22;9958;33.196;-97.114;2023-05-21T14:54:53;23.10;99.90
19622;DHT22;9958;33.196;-97.114;2023-05-21T14:57:22;23.30;99.90
19622;DHT22;9958;33.196;-97.114;2023-05-21T14:59:50;23.60;99.90
19622;DHT22;9958;33.196;-97.114;2023-05-21T15:02:18;23.80;99.90
19622;DHT22;9958;33.196;-97.114;2023-05-21T15:04:48;24.00;99.90
19622;DHT22;9958;33.196;-97.114;2023-05-21T15:07:16;24.30;99.90
19622;DHT22;9958;33.196;-97.114;2023-05-21T15:09:45;24.50;99.90
19622;DHT22;9958;33.196;-97.114;2023-05-21T15:12:13;24.60;99.90
19622;DHT22;9958;33.196;-97.114;2023-05-21T15:14:41;24.70;99.90
19622;DHT22;9958;33.196;-97.114;2023-05-21T15:17:10;24.70;99.90
19622;DHT22;9958;33.196;-97.114;2023-05-21T15:19:38;24.70;99.90
19622;DHT22;9958;33.196;-97.114;2023-05-21T15:22:08;24.70;99.90
19622;DHT22;9958;33.196;-97.114;2023-05-21T15:24:36;24.60;99.90
19622;DHT22;9958;33.196;-97.114;2023-05-21T15:27:05;24.60;99.90
19622;DHT22;9958;33.196;-97.114;2023-05-21T15:29:33;24.50;99.90
19622;DHT22;9958;33.196;-97.114;2023-05-21T15:32:01;24.40;99.90
19622;DHT22;9958;33.196;-97.114;2023-05-21T15:34:31;24.40;99.90